Terminal Aerodrome Forecast
Issued by NWS

Home | Current Version | Previous Version | Graphics & Text | Print | Product List | Glossary On
Versions: 1 2 3 4 5 6 7 8 9 10 11 12 13 14 15 16 17 18 19 20 21 22 23
334
FTUS43 KIWX 101617 AAA
TAFSBN
TAF AMD
KSBN 101617Z 1016/1112 30014G22KT 1 1/2SM -SN BR OVC015
      TEMPO 1016/1020 1/2SM SN FZFG BLSN OVC010
     FM102200 30010KT 4SM -SHSN BR OVC025=

USA.gov is the U.S. government's official web portal to all federal, state and local government web resources and services.